sensor_id;sensor_type;location;lat;lon;timestamp;temperature;humidity
20560;DHT22;10438;51.454;6.718;2023-04-24T00:00:16;11.40;99.90
20560;DHT22;10438;51.454;6.718;2023-04-24T00:02:43;11.40;99.90
20560;DHT22;10438;51.454;6.718;2023-04-24T00:05:13;11.40;99.90
20560;DHT22;10438;51.454;6.718;2023-04-24T00:07:39;11.40;99.90
20560;DHT22;10438;51.454;6.718;2023-04-24T00:10:06;11.40;99.90
20560;DHT22;10438;51.454;6.718;2023-04-24T00:12:31;11.30;99.90
20560;DHT22;10438;51.454;6.718;2023-04-24T00:14:57;11.30;99.90
20560;DHT22;10438;51.454;6.718;2023-04-24T00:17:22;11.30;99.90
20560;DHT22;10438;51.454;6.718;2023-04-24T00:19:48;11.30;99.90
20560;DHT22;10438;51.454;6.718;2023-04-24T00:22:17;11.30;99.90
20560;DHT22;10438;51.454;6.718;2023-04-24T00:24:42;11.30;99.90
20560;DHT22;10438;51.454;6.718;2023-04-24T00:27:08;11.30;99.90
20560;DHT22;10438;51.454;6.718;2023-04-24T00:29:34;11.30;99.90
20560;DHT22;10438;51.454;6.718;2023-04-24T00:31:59;11.20;99.90
20560;DHT22;10438;51.454;6.718;2023-04-24T00:34:25;11.20;99.90
20560;DHT22;10438;51.454;6.718;2023-04-24T00:36:51;11.20;99.90
20560;DHT22;10438;51.454;6.718;2023-04-24T00:39:19;11.10;99.90
20560;DHT22;10438;51.454;6.718;2023-04-24T00:41:45;11.00;99.90
20560;DHT22;10438;51.454;6.718;2023-04-24T00:44:10;10.90;99.90
20560;DHT22;10438;51.454;6.718;2023-04-24T00:46:36;10.90;99.90
20560;DHT22;10438;51.454;6.718;2023-04-24T00:49:02;10.80;99.90
20560;DHT22;10438;51.454;6.718;2023-04-24T00:51:28;10.80;99.90
20560;DHT22;10438;51.454;6.718;2023-04-24T00:53:53;10.70;99.90
20560;DHT22;10438;51.454;6.718;2023-04-24T00:56:19;10.70;99.90
20560;DHT22;10438;51.454;6.718;2023-04-24T00:58:45;10.60;99.90
20560;DHT22;10438;51.454;6.718;2023-04-24T01:01:11;10.60;99.90
20560;DHT22;10438;51.454;6.718;2023-04-24T01:03:37;10.50;99.90
20560;DHT22;10438;51.454;6.718;2023-04-24T01:06:03;10.50;99.90
20560;DHT22;10438;51.454;6.718;2023-04-24T01:08:29;10.50;99.90
20560;DHT22;10438;51.454;6.718;2023-04-24T01:10:55;10.40;99.90
20560;DHT22;10438;51.454;6.718;2023-04-24T01:13:22;10.40;99.90
20560;DHT22;10438;51.454;6.718;2023-04-24T01:15:48;10.30;99.90
20560;DHT22;10438;51.454;6.718;2023-04-24T01:18:14;10.30;99.90
20560;DHT22;10438;51.454;6.718;2023-04-24T01:20:42;10.20;99.90
20560;DHT22;10438;51.454;6.718;2023-04-24T01:23:09;10.10;99.90
20560;DHT22;10438;51.454;6.718;2023-04-24T01:25:35;10.10;99.90
20560;DHT22;10438;51.454;6.718;2023-04-24T01:28:01;10.10;99.90
20560;DHT22;10438;51.454;6.718;2023-04-24T01:30:27;10.00;99.90
20560;DHT22;10438;51.454;6.718;2023-04-24T01:32:53;10.00;99.90
20560;DHT22;10438;51.454;6.718;2023-04-24T01:35:19;10.00;99.90
20560;DHT22;10438;51.454;6.718;2023-04-24T01:37:45;10.00;99.90
20560;DHT22;10438;51.454;6.718;2023-04-24T01:40:11;10.10;99.90
20560;DHT22;10438;51.454;6.718;2023-04-24T01:42:37;10.10;99.90
20560;DHT22;10438;51.454;6.718;2023-04-24T01:45:04;10.10;99.90
20560;DHT22;10438;51.454;6.718;2023-04-24T01:47:31;10.10;99.90
20560;DHT22;10438;51.454;6.718;2023-04-24T01:49:57;10.10;99.90
20560;DHT22;10438;51.454;6.718;2023-04-24T01:52:23;10.10;99.90
20560;DHT22;10438;51.454;6.718;2023-04-24T01:54:49;10.10;99.90
20560;DHT22;10438;51.454;6.718;2023-04-24T01:57:14;10.10;99.90
20560;DHT22;10438;51.454;6.718;2023-04-24T01:59:41;10.10;99.90
20560;DHT22;10438;51.454;6.718;2023-04-24T02:02:06;10.20;99.90
20560;DHT22;10438;51.454;6.718;2023-04-24T02:04:33;10.20;99.90
20560;DHT22;10438;51.454;6.718;2023-04-24T02:06:58;10.20;99.90
20560;DHT22;10438;51.454;6.718;2023-04-24T02:09:24;10.10;99.90
20560;DHT22;10438;51.454;6.718;2023-04-24T02:11:50;10.10;99.90
20560;DHT22;10438;51.454;6.718;2023-04-24T02:14:15;10.10;99.90
20560;DHT22;10438;51.454;6.718;2023-04-24T02:16:41;10.10;99.90
20560;DHT22;10438;51.454;6.718;2023-04-24T02:19:07;10.10;99.90
20560;DHT22;10438;51.454;6.718;2023-04-24T02:21:33;10.00;99.90
20560;DHT22;10438;51.454;6.718;2023-04-24T02:23:58;10.00;99.90
20560;DHT22;10438;51.454;6.718;2023-04-24T02:26:24;10.00;99.90
20560;DHT22;10438;51.454;6.718;2023-04-24T02:28:50;10.00;99.90
20560;DHT22;10438;51.454;6.718;2023-04-24T02:31:15;10.00;99.90
20560;DHT22;10438;51.454;6.718;2023-04-24T02:33:41;10.00;99.90
20560;DHT22;10438;51.454;6.718;2023-04-24T02:36:07;10.00;99.90
20560;DHT22;10438;51.454;6.718;2023-04-24T02:38:32;10.00;99.90
20560;DHT22;10438;51.454;6.718;2023-04-24T02:40:58;10.00;99.90
20560;DHT22;10438;51.454;6.718;2023-04-24T02:43:23;9.90;99.90
20560;DHT22;10438;51.454;6.718;2023-04-24T02:45:49;9.90;99.90
20560;DHT22;10438;51.454;6.718;2023-04-24T02:48:14;9.90;99.90
20560;DHT22;10438;51.454;6.718;2023-04-24T02:50:40;9.90;99.90
20560;DHT22;10438;51.454;6.718;2023-04-24T02:53:06;9.90;99.90
20560;DHT22;10438;51.454;6.718;2023-04-24T02:55:31;9.90;99.90
20560;DHT22;10438;51.454;6.718;2023-04-24T02:57:57;9.90;99.90
20560;DHT22;10438;51.454;6.718;2023-04-24T03:00:23;9.90;99.90
20560;DHT22;10438;51.454;6.718;2023-04-24T03:02:48;9.90;99.90
20560;DHT22;10438;51.454;6.718;2023-04-24T03:05:15;9.90;99.90
20560;DHT22;10438;51.454;6.718;2023-04-24T03:07:40;9.90;99.90
20560;DHT22;10438;51.454;6.718;2023-04-24T03:10:07;9.90;99.90
20560;DHT22;10438;51.454;6.718;2023-04-24T03:12:32;9.90;99.90
20560;DHT22;10438;51.454;6.718;2023-04-24T03:14:58;9.90;99.90
20560;DHT22;10438;51.454;6.718;2023-04-24T03:17:23;9.90;99.90
20560;DHT22;10438;51.454;6.718;2023-04-24T03:19:49;9.90;99.90
20560;DHT22;10438;51.454;6.718;2023-04-24T03:22:14;9.90;99.90
20560;DHT22;10438;51.454;6.718;2023-04-24T03:24:40;9.90;99.90
20560;DHT22;10438;51.454;6.718;2023-04-24T03:27:05;9.90;99.90
20560;DHT22;10438;51.454;6.718;2023-04-24T03:29:31;10.00;99.90
20560;DHT22;10438;51.454;6.718;2023-04-24T03:31:57;10.00;99.90
20560;DHT22;10438;51.454;6.718;2023-04-24T03:34:22;10.00;99.90
20560;DHT22;10438;51.454;6.718;2023-04-24T03:36:48;10.00;99.90
20560;DHT22;10438;51.454;6.718;2023-04-24T03:39:13;10.00;99.90
20560;DHT22;10438;51.454;6.718;2023-04-24T03:41:40;10.00;99.90
20560;DHT22;10438;51.454;6.718;2023-04-24T03:44:05;10.00;99.90
20560;DHT22;10438;51.454;6.718;2023-04-24T03:46:31;10.00;99.90
20560;DHT22;10438;51.454;6.718;2023-04-24T03:48:56;10.00;99.90
20560;DHT22;10438;51.454;6.718;2023-04-24T03:51:22;10.00;99.90
20560;DHT22;10438;51.454;6.718;2023-04-24T03:53:48;10.00;99.90
20560;DHT22;10438;51.454;6.718;2023-04-24T03:56:14;10.00;99.90
20560;DHT22;10438;51.454;6.718;2023-04-24T03:58:40;10.00;99.90
20560;DHT22;10438;51.454;6.718;2023-04-24T04:01:05;10.00;99.90
20560;DHT22;10438;51.454;6.718;2023-04-24T04:03:31;10.00;99.90
20560;DHT22;10438;51.454;6.718;2023-04-24T04:05:57;10.00;99.90
20560;DHT22;10438;51.454;6.718;2023-04-24T04:08:22;10.00;99.90
20560;DHT22;10438;51.454;6.718;2023-04-24T04:10:48;10.00;99.90
20560;DHT22;10438;51.454;6.718;2023-04-24T04:13:13;10.00;99.90
20560;DHT22;10438;51.454;6.718;2023-04-24T04:15:39;10.00;99.90
20560;DHT22;10438;51.454;6.718;2023-04-24T04:18:05;10.10;99.90
20560;DHT22;10438;51.454;6.718;2023-04-24T04:20:31;10.10;99.90
20560;DHT22;10438;51.454;6.718;2023-04-24T04:22:56;10.00;99.90
20560;DHT22;10438;51.454;6.718;2023-04-24T04:25:22;10.00;99.90
20560;DHT22;10438;51.454;6.718;2023-04-24T04:27:48;10.00;99.90
20560;DHT22;10438;51.454;6.718;2023-04-24T04:30:14;10.00;99.90
20560;DHT22;10438;51.454;6.718;2023-04-24T04:32:40;10.00;99.90
20560;DHT22;10438;51.454;6.718;2023-04-24T04:35:05;10.00;99.90
20560;DHT22;10438;51.454;6.718;2023-04-24T04:37:32;10.00;99.90
20560;DHT22;10438;51.454;6.718;2023-04-24T04:39:59;10.00;99.90
20560;DHT22;10438;51.454;6.718;2023-04-24T04:42:25;10.00;99.90
20560;DHT22;10438;51.454;6.718;2023-04-24T04:44:50;10.00;99.90
20560;DHT22;10438;51.454;6.718;2023-04-24T04:47:16;10.00;99.90
20560;DHT22;10438;51.454;6.718;2023-04-24T04:49:43;10.00;99.90
20560;DHT22;10438;51.454;6.718;2023-04-24T04:52:09;10.00;99.90
20560;DHT22;10438;51.454;6.718;2023-04-24T04:54:34;10.00;99.90
20560;DHT22;10438;51.454;6.718;2023-04-24T04:57:00;10.00;99.90
20560;DHT22;10438;51.454;6.718;2023-04-24T04:59:26;10.00;99.90
20560;DHT22;10438;51.454;6.718;2023-04-24T05:01:52;10.00;99.90
20560;DHT22;10438;51.454;6.718;2023-04-24T05:04:17;9.90;99.90
20560;DHT22;10438;51.454;6.718;2023-04-24T05:06:43;9.90;99.90
20560;DHT22;10438;51.454;6.718;2023-04-24T05:09:09;9.90;99.90
20560;DHT22;10438;51.454;6.718;2023-04-24T05:11:35;9.90;99.90
20560;DHT22;10438;51.454;6.718;2023-04-24T05:14:00;9.80;99.90
20560;DHT22;10438;51.454;6.718;2023-04-24T05:16:26;9.80;99.90
20560;DHT22;10438;51.454;6.718;2023-04-24T05:18:51;9.80;99.90
20560;DHT22;10438;51.454;6.718;2023-04-24T05:21:17;9.70;99.90
20560;DHT22;10438;51.454;6.718;2023-04-24T05:23:42;9.60;99.90
20560;DHT22;10438;51.454;6.718;2023-04-24T05:26:08;9.60;99.90
20560;DHT22;10438;51.454;6.718;2023-04-24T05:28:33;9.50;99.90
20560;DHT22;10438;51.454;6.718;2023-04-24T05:31:02;9.40;99.90
20560;DHT22;10438;51.454;6.718;2023-04-24T05:33:27;9.40;99.90
20560;DHT22;10438;51.454;6.718;2023-04-24T05:35:53;9.30;99.90
20560;DHT22;10438;51.454;6.718;2023-04-24T05:38:19;9.30;99.90
20560;DHT22;10438;51.454;6.718;2023-04-24T05:40:48;9.30;99.90
20560;DHT22;10438;51.454;6.718;2023-04-24T05:43:13;9.30;99.90
20560;DHT22;10438;51.454;6.718;2023-04-24T05:45:39;9.30;99.90
20560;DHT22;10438;51.454;6.718;2023-04-24T05:48:05;9.30;99.90
20560;DHT22;10438;51.454;6.718;2023-04-24T05:50:31;9.40;99.90
20560;DHT22;10438;51.454;6.718;2023-04-24T05:52:56;9.40;99.90
20560;DHT22;10438;51.454;6.718;2023-04-24T05:55:27;9.40;99.90
20560;DHT22;10438;51.454;6.718;2023-04-24T05:57:53;9.40;99.90
20560;DHT22;10438;51.454;6.718;2023-04-24T06:00:19;9.40;99.90
20560;DHT22;10438;51.454;6.718;2023-04-24T06:02:46;9.30;99.90
20560;DHT22;10438;51.454;6.718;2023-04-24T06:05:12;9.30;99.90
20560;DHT22;10438;51.454;6.718;2023-04-24T06:07:38;9.30;99.90
20560;DHT22;10438;51.454;6.718;2023-04-24T06:10:03;9.20;99.90
20560;DHT22;10438;51.454;6.718;2023-04-24T06:12:29;9.20;99.90
20560;DHT22;10438;51.454;6.718;2023-04-24T06:14:55;9.10;99.90
20560;DHT22;10438;51.454;6.718;2023-04-24T06:17:21;9.10;99.90
20560;DHT22;10438;51.454;6.718;2023-04-24T06:19:46;9.10;99.90
20560;DHT22;10438;51.454;6.718;2023-04-24T06:22:12;9.10;99.90
20560;DHT22;10438;51.454;6.718;2023-04-24T06:24:39;9.10;99.90
20560;DHT22;10438;51.454;6.718;2023-04-24T06:27:05;9.10;99.90
20560;DHT22;10438;51.454;6.718;2023-04-24T06:29:31;9.10;99.90
20560;DHT22;10438;51.454;6.718;2023-04-24T06:31:57;9.10;99.90
20560;DHT22;10438;51.454;6.718;2023-04-24T06:34:22;9.10;99.90
20560;DHT22;10438;51.454;6.718;2023-04-24T06:36:48;9.10;99.90
20560;DHT22;10438;51.454;6.718;2023-04-24T06:39:13;9.10;99.90
20560;DHT22;10438;51.454;6.718;2023-04-24T06:41:39;9.10;99.90
20560;DHT22;10438;51.454;6.718;2023-04-24T06:44:05;9.10;99.90
20560;DHT22;10438;51.454;6.718;2023-04-24T06:46:31;9.10;99.90
20560;DHT22;10438;51.454;6.718;2023-04-24T06:48:56;9.10;99.90
20560;DHT22;10438;51.454;6.718;2023-04-24T06:51:26;9.10;99.90
20560;DHT22;10438;51.454;6.718;2023-04-24T06:53:55;9.00;99.90
20560;DHT22;10438;51.454;6.718;2023-04-24T06:56:23;9.00;99.90
20560;DHT22;10438;51.454;6.718;2023-04-24T06:58:48;9.00;99.90
20560;DHT22;10438;51.454;6.718;2023-04-24T07:01:14;8.90;99.90
20560;DHT22;10438;51.454;6.718;2023-04-24T07:03:40;8.90;99.90
20560;DHT22;10438;51.454;6.718;2023-04-24T07:06:06;8.90;99.90
20560;DHT22;10438;51.454;6.718;2023-04-24T07:08:31;8.80;99.90
20560;DHT22;10438;51.454;6.718;2023-04-24T07:10:58;8.80;99.90
20560;DHT22;10438;51.454;6.718;2023-04-24T07:13:24;8.80;99.90
20560;DHT22;10438;51.454;6.718;2023-04-24T07:15:49;8.90;99.90
20560;DHT22;10438;51.454;6.718;2023-04-24T07:18:17;8.90;99.90
20560;DHT22;10438;51.454;6.718;2023-04-24T07:20:43;8.90;99.90
20560;DHT22;10438;51.454;6.718;2023-04-24T07:23:09;9.00;99.90
20560;DHT22;10438;51.454;6.718;2023-04-24T07:25:35;8.90;99.90
20560;DHT22;10438;51.454;6.718;2023-04-24T07:28:00;8.80;99.90
20560;DHT22;10438;51.454;6.718;2023-04-24T07:30:26;8.70;99.90
20560;DHT22;10438;51.454;6.718;2023-04-24T07:32:54;8.70;99.90
20560;DHT22;10438;51.454;6.718;2023-04-24T07:35:19;8.70;99.90
20560;DHT22;10438;51.454;6.718;2023-04-24T07:37:45;8.70;99.90
20560;DHT22;10438;51.454;6.718;2023-04-24T07:40:12;8.60;99.90
20560;DHT22;10438;51.454;6.718;2023-04-24T07:42:38;8.50;99.90
20560;DHT22;10438;51.454;6.718;2023-04-24T07:45:04;8.50;99.90
20560;DHT22;10438;51.454;6.718;2023-04-24T07:47:30;8.50;99.90
20560;DHT22;10438;51.454;6.718;2023-04-24T07:49:56;8.50;99.90
20560;DHT22;10438;51.454;6.718;2023-04-24T07:52:21;8.40;99.90
20560;DHT22;10438;51.454;6.718;2023-04-24T07:54:47;8.30;99.90
20560;DHT22;10438;51.454;6.718;2023-04-24T07:57:12;8.30;99.90
20560;DHT22;10438;51.454;6.718;2023-04-24T07:59:39;8.20;99.90
20560;DHT22;10438;51.454;6.718;2023-04-24T08:02:04;8.20;99.90
20560;DHT22;10438;51.454;6.718;2023-04-24T08:04:31;8.30;99.90
20560;DHT22;10438;51.454;6.718;2023-04-24T08:06:57;8.30;99.90
20560;DHT22;10438;51.454;6.718;2023-04-24T08:09:22;8.20;99.90
20560;DHT22;10438;51.454;6.718;2023-04-24T08:11:48;8.30;99.90
20560;DHT22;10438;51.454;6.718;2023-04-24T08:14:13;8.20;99.90
20560;DHT22;10438;51.454;6.718;2023-04-24T08:16:40;8.30;99.90
20560;DHT22;10438;51.454;6.718;2023-04-24T08:19:06;8.30;99.90
20560;DHT22;10438;51.454;6.718;2023-04-24T08:21:31;8.30;99.90
20560;DHT22;10438;51.454;6.718;2023-04-24T08:23:57;8.30;99.90
20560;DHT22;10438;51.454;6.718;2023-04-24T08:26:23;8.30;99.90
20560;DHT22;10438;51.454;6.718;2023-04-24T08:28:48;8.30;99.90
20560;DHT22;10438;51.454;6.718;2023-04-24T08:31:14;8.40;99.90
20560;DHT22;10438;51.454;6.718;2023-04-24T08:33:40;8.50;99.90
20560;DHT22;10438;51.454;6.718;2023-04-24T08:36:06;8.50;99.90
20560;DHT22;10438;51.454;6.718;2023-04-24T08:38:33;8.60;99.90
20560;DHT22;10438;51.454;6.718;2023-04-24T08:41:00;8.60;99.90
20560;DHT22;10438;51.454;6.718;2023-04-24T08:43:26;8.70;99.90
20560;DHT22;10438;51.454;6.718;2023-04-24T08:45:53;8.70;99.90
20560;DHT22;10438;51.454;6.718;2023-04-24T08:48:22;8.80;99.90
20560;DHT22;10438;51.454;6.718;2023-04-24T08:50:50;8.80;99.90
20560;DHT22;10438;51.454;6.718;2023-04-24T08:53:16;8.90;99.90
20560;DHT22;10438;51.454;6.718;2023-04-24T08:55:43;8.90;99.90
20560;DHT22;10438;51.454;6.718;2023-04-24T08:58:09;8.90;99.90
20560;DHT22;10438;51.454;6.718;2023-04-24T09:00:36;8.80;99.90
20560;DHT22;10438;51.454;6.718;2023-04-24T09:03:04;8.70;99.90
20560;DHT22;10438;51.454;6.718;2023-04-24T09:05:31;8.70;99.90
20560;DHT22;10438;51.454;6.718;2023-04-24T09:07:58;8.60;99.90
20560;DHT22;10438;51.454;6.718;2023-04-24T09:10:25;8.60;99.90
20560;DHT22;10438;51.454;6.718;2023-04-24T09:12:51;8.70;99.90
20560;DHT22;10438;51.454;6.718;2023-04-24T09:15:19;8.70;99.90
20560;DHT22;10438;51.454;6.718;2023-04-24T09:17:45;8.60;99.90
20560;DHT22;10438;51.454;6.718;2023-04-24T09:20:11;8.60;99.90
20560;DHT22;10438;51.454;6.718;2023-04-24T09:22:37;8.60;99.90
20560;DHT22;10438;51.454;6.718;2023-04-24T09:25:07;8.50;99.90
20560;DHT22;10438;51.454;6.718;2023-04-24T09:27:34;8.40;99.90
20560;DHT22;10438;51.454;6.718;2023-04-24T09:30:00;8.30;99.90
20560;DHT22;10438;51.454;6.718;2023-04-24T09:32:26;8.30;99.90
20560;DHT22;10438;51.454;6.718;2023-04-24T09:35:13;8.30;99.90
20560;DHT22;10438;51.454;6.718;2023-04-24T09:37:41;8.30;99.90
20560;DHT22;10438;51.454;6.718;2023-04-24T09:40:17;8.20;99.90
20560;DHT22;10438;51.454;6.718;2023-04-24T09:42:55;8.20;99.90
20560;DHT22;10438;51.454;6.718;2023-04-24T09:45:22;8.30;99.90
20560;DHT22;10438;51.454;6.718;2023-04-24T09:47:51;8.30;99.90
20560;DHT22;10438;51.454;6.718;2023-04-24T09:50:19;8.30;99.90
20560;DHT22;10438;51.454;6.718;2023-04-24T09:52:46;8.40;99.90
20560;DHT22;10438;51.454;6.718;2023-04-24T09:55:20;8.40;99.90
20560;DHT22;10438;51.454;6.718;2023-04-24T09:58:01;8.40;99.90
20560;DHT22;10438;51.454;6.718;2023-04-24T10:00:32;8.50;99.90
20560;DHT22;10438;51.454;6.718;2023-04-24T10:03:02;8.50;99.90
20560;DHT22;10438;51.454;6.718;2023-04-24T10:05:32;8.60;99.90
20560;DHT22;10438;51.454;6.718;2023-04-24T10:08:09;8.60;99.90
20560;DHT22;10438;51.454;6.718;2023-04-24T10:10:44;8.70;99.90
20560;DHT22;10438;51.454;6.718;2023-04-24T10:13:11;8.60;99.90
20560;DHT22;10438;51.454;6.718;2023-04-24T10:15:37;8.60;99.90
20560;DHT22;10438;51.454;6.718;2023-04-24T10:18:04;8.60;99.90
20560;DHT22;10438;51.454;6.718;2023-04-24T10:20:32;8.60;99.90
20560;DHT22;10438;51.454;6.718;2023-04-24T10:22:59;8.50;99.90
20560;DHT22;10438;51.454;6.718;2023-04-24T10:25:35;8.60;99.90
20560;DHT22;10438;51.454;6.718;2023-04-24T10:28:02;8.70;99.90
20560;DHT22;10438;51.454;6.718;2023-04-24T10:30:33;8.70;99.90
20560;DHT22;10438;51.454;6.718;2023-04-24T10:33:04;8.60;99.90
20560;DHT22;10438;51.454;6.718;2023-04-24T10:35:31;8.60;99.90
20560;DHT22;10438;51.454;6.718;2023-04-24T10:38:01;8.60;99.90
20560;DHT22;10438;51.454;6.718;2023-04-24T10:40:33;8.60;99.90
20560;DHT22;10438;51.454;6.718;2023-04-24T10:42:59;8.60;99.90
20560;DHT22;10438;51.454;6.718;2023-04-24T10:45:27;8.70;99.90
20560;DHT22;10438;51.454;6.718;2023-04-24T10:48:06;8.70;99.90
20560;DHT22;10438;51.454;6.718;2023-04-24T10:50:52;8.70;99.90
20560;DHT22;10438;51.454;6.718;2023-04-24T10:53:19;8.80;99.90
20560;DHT22;10438;51.454;6.718;2023-04-24T10:55:51;8.80;99.90
20560;DHT22;10438;51.454;6.718;2023-04-24T10:58:23;8.80;99.90
20560;DHT22;10438;51.454;6.718;2023-04-24T11:00:57;8.90;99.90
20560;DHT22;10438;51.454;6.718;2023-04-24T11:03:25;9.20;99.90
20560;DHT22;10438;51.454;6.718;2023-04-24T11:05:55;9.40;99.90
20560;DHT22;10438;51.454;6.718;2023-04-24T11:08:25;9.40;99.90
20560;DHT22;10438;51.454;6.718;2023-04-24T11:10:59;9.40;99.90
20560;DHT22;10438;51.454;6.718;2023-04-24T11:13:27;9.40;99.90
20560;DHT22;10438;51.454;6.718;2023-04-24T11:16:12;9.30;99.90
20560;DHT22;10438;51.454;6.718;2023-04-24T11:18:38;9.20;99.90
20560;DHT22;10438;51.454;6.718;2023-04-24T11:21:13;9.20;99.90
20560;DHT22;10438;51.454;6.718;2023-04-24T11:23:39;9.10;99.90
20560;DHT22;10438;51.454;6.718;2023-04-24T11:26:22;9.00;99.90
20560;DHT22;10438;51.454;6.718;2023-04-24T11:28:52;9.00;99.90
20560;DHT22;10438;51.454;6.718;2023-04-24T11:31:40;9.00;99.90
20560;DHT22;10438;51.454;6.718;2023-04-24T11:34:13;9.10;99.90
20560;DHT22;10438;51.454;6.718;2023-04-24T11:36:40;9.20;99.90
20560;DHT22;10438;51.454;6.718;2023-04-24T11:39:06;9.30;99.90
20560;DHT22;10438;51.454;6.718;2023-04-24T11:41:32;9.40;99.90
20560;DHT22;10438;51.454;6.718;2023-04-24T11:43:58;9.60;99.90
20560;DHT22;10438;51.454;6.718;2023-04-24T11:46:28;9.70;99.90
20560;DHT22;10438;51.454;6.718;2023-04-24T11:48:54;9.70;99.90
20560;DHT22;10438;51.454;6.718;2023-04-24T11:51:19;9.80;99.90
20560;DHT22;10438;51.454;6.718;2023-04-24T11:53:45;9.90;99.90
20560;DHT22;10438;51.454;6.718;2023-04-24T11:56:10;10.00;99.90
20560;DHT22;10438;51.454;6.718;2023-04-24T11:58:38;10.10;99.90
20560;DHT22;10438;51.454;6.718;2023-04-24T12:01:04;10.10;99.90
20560;DHT22;10438;51.454;6.718;2023-04-24T12:03:31;10.00;99.90
20560;DHT22;10438;51.454;6.718;2023-04-24T12:06:10;10.00;99.90
20560;DHT22;10438;51.454;6.718;2023-04-24T12:08:37;10.00;99.90
20560;DHT22;10438;51.454;6.718;2023-04-24T12:11:04;9.90;99.90
20560;DHT22;10438;51.454;6.718;2023-04-24T12:13:30;9.90;99.90
20560;DHT22;10438;51.454;6.718;2023-04-24T12:16:01;9.90;99.90
20560;DHT22;10438;51.454;6.718;2023-04-24T12:18:27;9.90;99.90
20560;DHT22;10438;51.454;6.718;2023-04-24T12:20:52;9.90;99.90
20560;DHT22;10438;51.454;6.718;2023-04-24T12:23:33;9.80;99.90
20560;DHT22;10438;51.454;6.718;2023-04-24T12:26:03;9.90;99.90
20560;DHT22;10438;51.454;6.718;2023-04-24T12:28:38;10.00;99.90
20560;DHT22;10438;51.454;6.718;2023-04-24T12:31:04;10.00;99.90
20560;DHT22;10438;51.454;6.718;2023-04-24T12:33:35;10.10;99.90
20560;DHT22;10438;51.454;6.718;2023-04-24T12:36:01;10.20;99.90
20560;DHT22;10438;51.454;6.718;2023-04-24T12:38:28;10.30;99.90
20560;DHT22;10438;51.454;6.718;2023-04-24T12:41:03;10.30;99.90
20560;DHT22;10438;51.454;6.718;2023-04-24T12:43:29;10.50;99.90
20560;DHT22;10438;51.454;6.718;2023-04-24T12:45:55;10.50;99.90
20560;DHT22;10438;51.454;6.718;2023-04-24T12:48:20;10.60;99.90
20560;DHT22;10438;51.454;6.718;2023-04-24T12:50:47;10.70;99.90
20560;DHT22;10438;51.454;6.718;2023-04-24T12:53:13;10.90;99.90
20560;DHT22;10438;51.454;6.718;2023-04-24T12:55:39;10.90;99.90
20560;DHT22;10438;51.454;6.718;2023-04-24T12:58:05;10.90;99.90
20560;DHT22;10438;51.454;6.718;2023-04-24T13:00:30;10.90;99.90
20560;DHT22;10438;51.454;6.718;2023-04-24T13:02:56;10.80;99.90
20560;DHT22;10438;51.454;6.718;2023-04-24T13:05:22;10.70;99.90
20560;DHT22;10438;51.454;6.718;2023-04-24T13:07:47;10.70;99.90
20560;DHT22;10438;51.454;6.718;2023-04-24T13:10:13;10.60;99.90
20560;DHT22;10438;51.454;6.718;2023-04-24T13:12:39;10.60;99.90
20560;DHT22;10438;51.454;6.718;2023-04-24T13:15:06;10.50;99.90
20560;DHT22;10438;51.454;6.718;2023-04-24T13:17:31;10.50;99.90
20560;DHT22;10438;51.454;6.718;2023-04-24T13:19:58;10.40;99.90
20560;DHT22;10438;51.454;6.718;2023-04-24T13:22:24;10.50;99.90
20560;DHT22;10438;51.454;6.718;2023-04-24T13:24:50;10.60;99.90
20560;DHT22;10438;51.454;6.718;2023-04-24T13:27:16;10.50;99.90
20560;DHT22;10438;51.454;6.718;2023-04-24T13:29:41;10.50;99.90
20560;DHT22;10438;51.454;6.718;2023-04-24T13:32:08;10.50;99.90
20560;DHT22;10438;51.454;6.718;2023-04-24T13:34:33;10.50;99.90
20560;DHT22;10438;51.454;6.718;2023-04-24T13:37:02;10.40;99.90
20560;DHT22;10438;51.454;6.718;2023-04-24T13:39:29;10.50;99.90
20560;DHT22;10438;51.454;6.718;2023-04-24T13:41:55;10.50;99.90
20560;DHT22;10438;51.454;6.718;2023-04-24T13:44:21;10.50;99.90
20560;DHT22;10438;51.454;6.718;2023-04-24T13:46:49;10.60;99.90
20560;DHT22;10438;51.454;6.718;2023-04-24T13:49:17;10.60;99.90
20560;DHT22;10438;51.454;6.718;2023-04-24T13:51:43;10.70;99.90
20560;DHT22;10438;51.454;6.718;2023-04-24T13:54:08;11.00;99.90
20560;DHT22;10438;51.454;6.718;2023-04-24T13:56:34;11.40;99.90
20560;DHT22;10438;51.454;6.718;2023-04-24T13:59:00;11.50;99.90
20560;DHT22;10438;51.454;6.718;2023-04-24T14:01:25;11.50;99.90
20560;DHT22;10438;51.454;6.718;2023-04-24T14:03:55;11.50;99.90
20560;DHT22;10438;51.454;6.718;2023-04-24T14:06:21;11.50;99.90
20560;DHT22;10438;51.454;6.718;2023-04-24T14:08:47;11.40;99.90
20560;DHT22;10438;51.454;6.718;2023-04-24T14:11:13;11.30;99.90
20560;DHT22;10438;51.454;6.718;2023-04-24T14:13:40;11.20;99.90
20560;DHT22;10438;51.454;6.718;2023-04-24T14:16:06;11.10;99.90
20560;DHT22;10438;51.454;6.718;2023-04-24T14:18:32;11.00;99.90
20560;DHT22;10438;51.454;6.718;2023-04-24T14:20:57;11.00;99.90
20560;DHT22;10438;51.454;6.718;2023-04-24T14:23:23;10.90;99.90
20560;DHT22;10438;51.454;6.718;2023-04-24T14:25:49;10.90;99.90
20560;DHT22;10438;51.454;6.718;2023-04-24T14:28:18;10.90;99.90
20560;DHT22;10438;51.454;6.718;2023-04-24T14:30:44;10.80;99.90
20560;DHT22;10438;51.454;6.718;2023-04-24T14:33:10;10.70;99.90
20560;DHT22;10438;51.454;6.718;2023-04-24T14:35:36;10.30;99.90
20560;DHT22;10438;51.454;6.718;2023-04-24T14:38:01;10.00;99.90
20560;DHT22;10438;51.454;6.718;2023-04-24T14:40:27;9.70;99.90
20560;DHT22;10438;51.454;6.718;2023-04-24T14:42:53;9.50;99.90
20560;DHT22;10438;51.454;6.718;2023-04-24T14:45:18;9.40;99.90
20560;DHT22;10438;51.454;6.718;2023-04-24T14:47:45;9.30;99.90
20560;DHT22;10438;51.454;6.718;2023-04-24T14:50:10;9.30;99.90
20560;DHT22;10438;51.454;6.718;2023-04-24T14:52:37;9.30;99.90
20560;DHT22;10438;51.454;6.718;2023-04-24T14:55:03;9.40;99.90
20560;DHT22;10438;51.454;6.718;2023-04-24T14:57:29;9.50;99.90
20560;DHT22;10438;51.454;6.718;2023-04-24T14:59:55;9.60;99.90
20560;DHT22;10438;51.454;6.718;2023-04-24T15:02:21;9.70;99.90
20560;DHT22;10438;51.454;6.718;2023-04-24T15:04:46;9.80;99.90
20560;DHT22;10438;51.454;6.718;2023-04-24T15:07:11;10.10;99.90
20560;DHT22;10438;51.454;6.718;2023-04-24T15:09:37;10.50;99.90
20560;DHT22;10438;51.454;6.718;2023-04-24T15:12:03;10.70;99.90
20560;DHT22;10438;51.454;6.718;2023-04-24T15:14:28;10.90;99.90
20560;DHT22;10438;51.454;6.718;2023-04-24T15:16:54;10.90;99.90
20560;DHT22;10438;51.454;6.718;2023-04-24T15:19:20;10.90;99.90
20560;DHT22;10438;51.454;6.718;2023-04-24T15:21:46;11.20;99.90
20560;DHT22;10438;51.454;6.718;2023-04-24T15:24:11;11.70;99.90
20560;DHT22;10438;51.454;6.718;2023-04-24T15:26:37;11.70;99.90
20560;DHT22;10438;51.454;6.718;2023-04-24T15:29:02;11.40;99.90
20560;DHT22;10438;51.454;6.718;2023-04-24T15:31:28;11.10;99.90
20560;DHT22;10438;51.454;6.718;2023-04-24T15:33:53;11.00;99.90
20560;DHT22;10438;51.454;6.718;2023-04-24T15:36:19;11.00;99.90